Veo, Iowa
Current Conditions -  °F | °C
As of 5:15 AM on Saturday 25 Oct 2014 (Local Time) from KFFL Reporting Station
NA  
Wind Chill: 48°   Ceiling: NA
Heat Index: 48°   Visibility: NA
Dew Point: 48°   Wind: 0mph
Humidity: 100%   Direction: NA
Pressure: 29.98"   Gusts: NA
Location:  41.202°N, 91.9548°W
Report Text: KFFL 251015Z AUTO 00000KT 09/09 A2998 RMK AO2
Loading
Personal Weather Stations






























Interactive Weather Map
Tropical Storm Tracking
New forecast layout! Learn more

10-Day Weather Forecast

Advertisements
Track Severe Weather on mobile